Time;durP1;ratioP1;P1;durP2;ratioP2;P2;SDS_P1;SDS_P2;PMS_P1;PMS_P2;Temp;Humidity;BMP_temperature;BMP_pressure;BME280_temperature;BME280_humidity;BME280_pressure;Samples;Min_cycle;Max_cycle;Signal;HPM_P1;HPM_P2
2022/08/11 00:01:54;;;;;;;;;;;;;;;20.51;70.18;100804.04;1759359;81;20146;-81
2022/08/11 00:04:23;;;;;;;;;;;;;;;20.47;70.20;100811.76;1757509;81;21256;-82
2022/08/11 00:06:49;;;;;;;;;;;;;;;20.43;70.31;100810.77;1733426;81;20180;-81
2022/08/11 00:09:18;;;;;;;;;;;;;;;20.45;70.40;100824.83;1758752;81;20199;-80
2022/08/11 00:11:47;;;;;;;;;;;;;;;20.43;70.48;100822.42;1757672;80;20143;-81
2022/08/11 00:14:22;;;;;;;;;;;;;;;20.46;70.50;100825.06;1757741;81;20544;-80
2022/08/11 00:16:58;;;;;;;;;;;;;;;20.47;70.46;100817.98;1757363;81;21753;-80
2022/08/11 00:19:32;;;;;;;;;;;;;;;20.46;70.42;100813.64;1757325;81;20190;-81
2022/08/11 00:21:58;;;;;;;;;;;;;;;20.46;70.43;100811.50;1757553;81;20229;-82
2022/08/11 00:24:24;;;;;;;;;;;;;;;20.46;70.40;100812.85;1760652;81;20139;-80
2022/08/11 00:26:51;;;;;;;;;;;;;;;20.46;70.42;100816.36;1759328;81;20198;-83
2022/08/11 00:29:18;;;;;;;;;;;;;;;20.46;70.43;100815.56;1740288;81;20642;-80
2022/08/11 00:31:50;;;;;;;;;;;;;;;20.62;69.99;100808.59;1731035;83;20204;-82
2022/08/11 00:34:19;;;;;;;;;;;;;;;20.63;69.92;100808.03;1758680;81;20166;-81
2022/08/11 00:36:52;;;;;;;;;;;;;;;20.68;69.71;100807.33;1760740;81;20134;-79
2022/08/11 00:39:20;;;;;;;;;;;;;;;20.60;69.92;100813.55;1759306;81;20134;-80
2022/08/11 00:42:23;;;;;;;;;;;;;;;20.53;69.99;100820.81;1760915;81;21133;-81
2022/08/11 00:45:09;;;;;;;;;;;;;;;20.58;70.06;100822.56;1733113;81;20459;-80
2022/08/11 00:47:50;;;;;;;;;;;;;;;20.67;69.83;100821.22;1739794;80;20174;-81
2022/08/11 00:50:29;;;;;;;;;;;;;;;20.69;69.72;100813.55;1758197;81;20218;-81
2022/08/11 00:53:08;;;;;;;;;;;;;;;20.70;69.65;100813.80;1754860;81;20536;-82
2022/08/11 00:55:39;;;;;;;;;;;;;;;20.64;69.69;100809.08;1725168;83;22169;-81
2022/08/11 00:58:20;;;;;;;;;;;;;;;20.54;70.02;100810.75;1734876;81;20180;-81
2022/08/11 01:01:10;;;;;;;;;;;;;;;20.51;70.13;100807.31;1738174;80;20139;-81
2022/08/11 01:03:40;;;;;;;;;;;;;;;20.51;70.18;100800.53;1735712;81;20131;-80
2022/08/11 01:06:39;;;;;;;;;;;;;;;20.50;70.31;100802.95;1753454;81;20146;-79
2022/08/11 01:09:10;;;;;;;;;;;;;;;20.46;70.33;100795.22;1733233;81;20699;-79
2022/08/11 01:11:54;;;;;;;;;;;;;;;20.41;70.42;100788.60;1735656;81;20527;-80
2022/08/11 01:14:28;;;;;;;;;;;;;;;20.52;69.98;100799.41;1754719;81;20236;-80
2022/08/11 01:17:01;;;;;;;;;;;;;;;20.31;70.15;100794.56;1753899;81;20177;-80
2022/08/11 01:19:34;;;;;;;;;;;;;;;20.23;70.30;100793.98;1758525;81;20449;-79
2022/08/11 01:22:03;;;;;;;;;;;;;;;20.19;70.41;100787.59;1753676;81;21206;-80
2022/08/11 01:24:37;;;;;;;;;;;;;;;20.20;70.48;100785.11;1758194;81;20144;-79
2022/08/11 01:27:28;;;;;;;;;;;;;;;20.19;70.44;100776.74;1754368;81;20751;-79
2022/08/11 01:30:02;;;;;;;;;;;;;;;20.30;70.14;100779.42;1726139;81;20193;-81
2022/08/11 01:32:52;;;;;;;;;;;;;;;20.20;70.20;100777.54;1755989;80;20162;-81
2022/08/11 01:35:48;;;;;;;;;;;;;;;20.14;70.22;100776.34;1751758;81;22126;-83
2022/08/11 01:38:41;;;;;;;;;;;;;;;20.12;70.28;100774.50;1756612;81;20170;-80
2022/08/11 01:41:23;;;;;;;;;;;;;;;20.13;70.24;100773.38;1758720;81;20173;-81
2022/08/11 01:47:49;;;;;;;;;;;;;;;20.09;70.43;100779.75;1759258;81;20209;-78
2022/08/11 01:49:43;;;;;;;;;;;;;;;20.27;70.00;100777.33;1731271;81;21189;-80
2022/08/11 01:52:22;;;;;;;;;;;;;;;20.32;69.80;100783.16;1758658;81;20302;-81
2022/08/11 01:55:26;;;;;;;;;;;;;;;20.32;69.71;100771.74;1757354;81;20429;-80
2022/08/11 01:57:59;;;;;;;;;;;;;;;20.29;69.82;100775.08;1733480;81;20168;-79
2022/08/11 02:00:27;;;;;;;;;;;;;;;20.38;69.61;100772.39;1730852;82;20180;-79
2022/08/11 02:03:09;;;;;;;;;;;;;;;20.40;69.57;100766.11;1756718;81;21133;-81
2022/08/11 02:06:01;;;;;;;;;;;;;;;20.42;69.53;100767.12;1757660;81;20123;-81
2022/08/11 02:08:47;;;;;;;;;;;;;;;20.44;69.54;100760.84;1760085;81;20182;-78
2022/08/11 02:11:29;;;;;;;;;;;;;;;20.47;69.52;100755.57;1755063;81;20208;-78
2022/08/11 02:14:12;;;;;;;;;;;;;;;20.50;69.51;100752.22;1754415;81;20198;-79
2022/08/11 02:17:10;;;;;;;;;;;;;;;20.52;69.52;100748.64;1756915;81;21168;-80
2022/08/11 02:25:51;;;;;;;;;;;;;;;20.55;69.54;100756.71;1730884;83;20142;-80
2022/08/11 02:28:33;;;;;;;;;;;;;;;20.52;69.58;100760.86;1730214;82;20226;-80
2022/08/11 02:34:28;;;;;;;;;;;;;;;20.47;69.73;100750.14;1737976;81;20144;-80
2022/08/11 02:37:03;;;;;;;;;;;;;;;20.45;69.89;100744.23;1754695;81;20189;-80
2022/08/11 02:39:33;;;;;;;;;;;;;;;20.41;70.02;100739.20;1758533;81;20130;-80
2022/08/11 02:42:24;;;;;;;;;;;;;;;20.21;70.63;100744.69;1759926;81;20225;-80
2022/08/11 02:45:17;;;;;;;;;;;;;;;20.13;70.98;100738.69;1731120;83;21529;-81
2022/08/11 02:51:07;;;;;;;;;;;;;;;20.06;71.51;100750.56;1757874;81;20239;-81
2022/08/11 02:54:02;;;;;;;;;;;;;;;20.02;71.67;100743.61;1758772;81;20683;-77
2022/08/11 02:57:05;;;;;;;;;;;;;;;20.02;71.80;100740.11;1758365;81;20210;-79
2022/08/11 02:59:50;;;;;;;;;;;;;;;20.08;71.75;100742.92;1758433;81;21616;-80
2022/08/11 03:02:24;;;;;;;;;;;;;;;20.06;71.73;100745.92;1758718;81;20197;-80
2022/08/11 03:05:15;;;;;;;;;;;;;;;20.08;71.79;100751.84;1749161;81;20144;-79
2022/08/11 03:08:08;;;;;;;;;;;;;;;20.07;71.90;100741.30;1756680;81;20193;-80
2022/08/11 03:16:43;;;;;;;;;;;;;;;20.04;72.01;100750.89;1760623;81;20142;-79
2022/08/11 03:16:45;;;;;;;;;;;;;;;20.23;71.36;100769.56;1758283;81;20150;-79
2022/08/11 03:19:32;;;;;;;;;;;;;;;20.23;71.22;100774.20;1730789;83;20161;-79
2022/08/11 03:22:24;;;;;;;;;;;;;;;20.22;71.22;100772.61;1747821;81;20422;-81
2022/08/11 03:25:09;;;;;;;;;;;;;;;20.22;71.22;100773.41;1642664;86;20185;-82
2022/08/11 03:27:42;;;;;;;;;;;;;;;20.21;71.22;100775.09;1641175;86;21186;-80
2022/08/11 03:30:15;;;;;;;;;;;;;;;20.15;71.40;100773.08;1705342;81;20202;-81
2022/08/11 03:36:26;;;;;;;;;;;;;;;20.11;71.49;100769.41;1758019;81;20138;-81
2022/08/11 03:39:05;;;;;;;;;;;;;;;20.13;71.53;100765.80;1758809;81;20151;-81
2022/08/11 03:41:44;;;;;;;;;;;;;;;20.14;71.50;100753.86;1757864;81;21154;-81
2022/08/11 03:44:17;;;;;;;;;;;;;;;20.00;71.86;100759.95;1757699;81;20453;-80
2022/08/11 03:47:15;;;;;;;;;;;;;;;20.13;71.70;100761.17;1758204;81;20223;-80
2022/08/11 03:50:22;;;;;;;;;;;;;;;20.19;71.50;100771.32;1758816;81;20199;-80
2022/08/11 03:53:11;;;;;;;;;;;;;;;20.19;71.40;100766.46;1757551;81;20412;-80
2022/08/11 03:55:59;;;;;;;;;;;;;;;20.16;71.46;100773.30;1757995;81;21259;-80
2022/08/11 03:58:34;;;;;;;;;;;;;;;20.05;71.84;100773.38;1759078;81;20202;-81
2022/08/11 04:01:27;;;;;;;;;;;;;;;20.04;71.98;100769.87;1757348;81;20476;-79
2022/08/11 04:04:24;;;;;;;;;;;;;;;20.22;71.65;100767.19;1756932;81;20253;-80
2022/08/11 04:07:11;;;;;;;;;;;;;;;20.30;71.39;100760.43;1730666;83;20153;-81
2022/08/11 04:09:57;;;;;;;;;;;;;;;20.34;71.20;100764.09;1771325;80;21148;-79
2022/08/11 04:12:51;;;;;;;;;;;;;;;20.37;71.07;100760.75;1754832;81;20174;-81
2022/08/11 04:16:01;;;;;;;;;;;;;;;20.42;71.06;100758.43;1756643;81;20142;-80
2022/08/11 04:18:50;;;;;;;;;;;;;;;20.47;70.87;100754.22;1761227;81;20208;-80
2022/08/11 04:21:52;;;;;;;;;;;;;;;20.30;71.09;100747.40;1757083;81;20437;-82
2022/08/11 04:24:45;;;;;;;;;;;;;;;20.27;71.35;100744.78;1758087;81;21090;-80
2022/08/11 04:27:42;;;;;;;;;;;;;;;20.46;70.83;100729.53;1758397;81;20216;-79
2022/08/11 04:30:18;;;;;;;;;;;;;;;20.50;70.70;100717.48;1760758;81;20468;-78
2022/08/11 04:33:23;;;;;;;;;;;;;;;20.48;70.42;100704.25;1755457;81;20182;-80
2022/08/11 04:36:10;;;;;;;;;;;;;;;20.52;70.39;100707.15;1700033;84;20196;-81
2022/08/11 04:38:58;;;;;;;;;;;;;;;20.51;70.43;100709.63;1701855;84;21189;-79
2022/08/11 04:44:55;;;;;;;;;;;;;;;20.53;70.35;100720.95;1756414;81;20189;-80
2022/08/11 05:02:36;;;;;;;;;;;;;;;20.60;70.29;100715.86;1758641;81;20279;-71
2022/08/11 05:05:36;;;;;;;;;;;;;;;20.65;69.93;100721.11;1739784;81;20166;-71
2022/08/11 05:08:40;;;;;;;;;;;;;;;20.64;69.80;100730.94;1756803;81;21222;-71
2022/08/11 05:11:20;;;;;;;;;;;;;;;20.66;69.75;100747.12;1740489;80;20457;-72
2022/08/11 05:36:32;;;;;;;;;;;;;;;21.03;69.47;100766.02;1757283;81;21128;-71
2022/08/11 05:58:33;;;;;;;;;;;;;;;22.38;65.77;100759.65;1760895;81;20210;-71
2022/08/11 06:00:59;;;;;;;;;;;;;;;22.58;65.22;100775.75;1760207;81;20146;-73
2022/08/11 06:03:27;;;;;;;;;;;;;;;22.72;64.15;100781.70;1760858;81;22154;-71
2022/08/11 06:05:53;;;;;;;;;;;;;;;22.80;63.69;100777.30;1759267;81;20166;-71
2022/08/11 06:08:29;;;;;;;;;;;;;;;22.84;63.05;100779.61;1757812;81;20178;-71
2022/08/11 06:11:00;;;;;;;;;;;;;;;22.80;62.84;100767.20;1757453;81;20503;-73
2022/08/11 06:13:26;;;;;;;;;;;;;;;22.79;62.44;100770.27;1757674;81;20685;-71
2022/08/11 06:15:54;;;;;;;;;;;;;;;22.69;62.58;100775.00;1759820;81;21140;-71
2022/08/11 06:18:21;;;;;;;;;;;;;;;22.69;62.98;100780.44;1760829;81;20445;-71
2022/08/11 06:20:49;;;;;;;;;;;;;;;22.75;62.56;100788.42;1759305;81;20155;-72
2022/08/11 06:23:19;;;;;;;;;;;;;;;22.69;62.55;100795.41;1758485;81;20361;-72
2022/08/11 06:25:45;;;;;;;;;;;;;;;22.68;62.74;100799.28;1758210;81;20199;-71
2022/08/11 06:28:11;;;;;;;;;;;;;;;22.71;62.61;100793.73;1758598;81;21152;-71
2022/08/11 06:30:41;;;;;;;;;;;;;;;22.66;62.55;100793.92;1760793;81;20142;-71
2022/08/11 06:33:11;;;;;;;;;;;;;;;22.59;62.78;100787.66;1760398;81;20558;-72
2022/08/11 06:36:06;;;;;;;;;;;;;;;22.55;62.81;100789.45;1758517;81;20171;-71
2022/08/11 06:38:43;;;;;;;;;;;;;;;22.48;63.04;100785.90;1760746;81;20143;-71
2022/08/11 06:41:31;;;;;;;;;;;;;;;22.40;63.15;100796.84;1760026;81;21129;-72
2022/08/11 06:44:15;;;;;;;;;;;;;;;22.38;63.57;100808.07;1674563;83;20136;-71
2022/08/11 06:46:45;;;;;;;;;;;;;;;22.41;63.81;100818.30;1731328;81;20157;-73
2022/08/11 06:52:01;;;;;;;;;;;;;;;22.36;63.64;100819.84;1760775;81;20445;-73
2022/08/11 06:54:35;;;;;;;;;;;;;;;22.26;63.70;100819.43;1759479;81;21125;-74
2022/08/11 07:02:48;;;;;;;;;;;;;;;22.01;64.49;100798.26;1758296;81;20494;-73
2022/08/11 07:05:29;;;;;;;;;;;;;;;21.95;64.86;100786.53;1760137;81;20174;-72
2022/08/11 07:17:22;;;;;;;;;;;;;;;21.90;65.60;100760.88;1757510;81;20209;-72
2022/08/11 07:31:40;;;;;;;;;;;;;;;22.02;66.03;100759.61;1757309;81;20220;-72
2022/08/11 07:34:19;;;;;;;;;;;;;;;21.95;66.51;100768.86;1757737;80;20146;-72
2022/08/11 07:36:51;;;;;;;;;;;;;;;21.96;66.34;100764.44;1757759;81;21137;-73
2022/08/11 07:39:27;;;;;;;;;;;;;;;21.99;66.52;100795.06;1758921;81;20166;-72
2022/08/11 07:41:55;;;;;;;;;;;;;;;22.03;66.38;100797.92;1756830;81;20199;-71
2022/08/11 07:44:24;;;;;;;;;;;;;;;22.04;66.46;100795.42;1733908;81;20198;-71
2022/08/11 07:52:29;;;;;;;;;;;;;;;21.97;66.33;100782.91;1760986;81;20138;-74
2022/08/11 07:54:59;;;;;;;;;;;;;;;21.98;66.66;100788.03;1760532;81;20163;-73
2022/08/11 08:19:25;;;;;;;;;;;;;;;22.41;65.69;100773.39;1759799;81;20127;-73
2022/08/11 08:21:51;;;;;;;;;;;;;;;22.49;65.40;100777.16;1760926;81;20156;-72
2022/08/11 08:24:18;;;;;;;;;;;;;;;22.50;65.36;100776.03;1761046;81;20138;-71
2022/08/11 08:26:57;;;;;;;;;;;;;;;22.56;65.20;100776.63;1759600;81;20181;-73
2022/08/11 08:32:15;;;;;;;;;;;;;;;22.46;65.48;100789.50;1741254;81;20143;-74
2022/08/11 08:34:42;;;;;;;;;;;;;;;22.49;65.38;100782.61;1759050;80;20170;-72
2022/08/11 08:37:18;;;;;;;;;;;;;;;22.49;65.30;100788.05;1760035;81;20165;-74
2022/08/11 08:39:45;;;;;;;;;;;;;;;22.55;65.39;100782.64;1759828;81;20426;-72
2022/08/11 08:42:13;;;;;;;;;;;;;;;22.58;65.09;100783.34;1760916;81;20824;-73
2022/08/11 08:44:41;;;;;;;;;;;;;;;22.57;65.11;100780.37;1760385;81;20478;-73
2022/08/11 08:47:11;;;;;;;;;;;;;;;22.62;65.32;100772.58;1760328;81;20142;-72
2022/08/11 08:49:40;;;;;;;;;;;;;;;22.66;64.99;100774.30;1760428;81;20540;-72
2022/08/11 08:52:07;;;;;;;;;;;;;;;22.86;64.66;100768.59;1758571;81;20338;-71
2022/08/11 08:54:37;;;;;;;;;;;;;;;22.95;63.93;100778.09;1758014;81;21777;-71
2022/08/11 08:57:06;;;;;;;;;;;;;;;22.97;63.72;100774.47;1758118;81;20204;-74
2022/08/11 08:59:38;;;;;;;;;;;;;;;22.79;64.12;100781.17;1757605;81;20205;-73
2022/08/11 09:02:05;;;;;;;;;;;;;;;22.71;64.25;100779.55;1760341;81;20469;-72
2022/08/11 09:04:31;;;;;;;;;;;;;;;22.74;64.45;100778.09;1758443;81;20230;-71
2022/08/11 09:06:59;;;;;;;;;;;;;;;22.78;64.58;100779.02;1757665;81;21762;-72
2022/08/11 09:09:26;;;;;;;;;;;;;;;22.81;64.56;100772.11;1758491;81;20214;-73
2022/08/11 09:11:53;;;;;;;;;;;;;;;22.85;64.51;100774.39;1759076;81;20150;-71
2022/08/11 09:14:23;;;;;;;;;;;;;;;22.89;64.36;100774.73;1760844;81;20411;-72
2022/08/11 09:16:53;;;;;;;;;;;;;;;22.94;64.48;100777.30;1760337;81;20218;-71
2022/08/11 09:19:20;;;;;;;;;;;;;;;23.11;64.45;100773.59;1752975;81;20767;-72
2022/08/11 09:26:58;;;;;;;;;;;;;;;23.31;64.04;100769.79;1746284;81;20142;-72
2022/08/11 09:27:05;;;;;;;;;;;;;;;23.80;62.92;100764.42;1730564;83;20127;-72
2022/08/11 09:29:32;;;;;;;;;;;;;;;24.10;62.12;100769.84;1730937;82;20171;-73
2022/08/11 09:31:58;;;;;;;;;;;;;;;24.36;61.32;100753.66;1730565;83;21808;-72
2022/08/11 09:34:25;;;;;;;;;;;;;;;24.71;60.04;100751.18;1730553;83;20429;-71
2022/08/11 09:42:22;;;;;;;;;;;;;;;25.00;58.88;100754.67;1760994;81;20155;-73
2022/08/11 09:44:48;;;;;;;;;;;;;;;25.08;58.37;100755.09;1760524;81;21833;-73
2022/08/11 09:47:22;;;;;;;;;;;;;;;25.13;58.50;100755.43;1760954;81;20127;-72
2022/08/11 09:49:50;;;;;;;;;;;;;;;25.20;58.41;100758.34;1760970;81;20135;-72
2022/08/11 09:52:17;;;;;;;;;;;;;;;25.33;58.10;100746.76;1735298;81;20248;-71
2022/08/11 09:54:43;;;;;;;;;;;;;;;25.63;56.96;100748.47;1758197;81;20238;-72
2022/08/11 09:59:54;;;;;;;;;;;;;;;25.55;56.52;100750.83;1738568;81;20160;-71
2022/08/11 10:02:27;;;;;;;;;;;;;;;25.58;56.86;100739.18;1758946;81;20183;-72
2022/08/11 10:07:49;;;;;;;;;;;;;;;25.76;56.64;100741.75;1757885;81;20472;-71
2022/08/11 10:10:12;;;;;;;;;;;;;;;25.91;56.57;100742.33;1757843;81;21034;-73
2022/08/11 10:12:40;;;;;;;;;;;;;;;26.18;55.62;100737.84;1758315;80;20177;-73
2022/08/11 10:20:40;;;;;;;;;;;;;;;26.27;54.79;100731.38;1758144;81;20159;-73
2022/08/11 10:28:35;;;;;;;;;;;;;;;26.39;54.61;100734.78;1758242;81;20437;-71
2022/08/11 10:34:00;;;;;;;;;;;;;;;26.53;54.72;100731.55;1760485;81;20484;-72
2022/08/11 10:36:27;;;;;;;;;;;;;;;26.48;54.30;100738.68;1760618;81;22154;-72
2022/08/11 10:38:55;;;;;;;;;;;;;;;26.38;54.71;100734.54;1759658;81;20242;-70
2022/08/11 10:44:06;;;;;;;;;;;;;;;26.31;54.88;100722.66;1757601;81;20517;-70
2022/08/11 10:49:17;;;;;;;;;;;;;;;26.48;54.61;100733.78;1757213;81;21547;-72
2022/08/11 10:59:58;;;;;;;;;;;;;;;26.89;54.08;100701.52;1758276;81;20165;-72
2022/08/11 11:02:26;;;;;;;;;;;;;;;26.97;53.47;100697.52;1758165;81;21801;-73
2022/08/11 11:05:11;;;;;;;;;;;;;;;27.04;53.48;100700.38;1760603;81;20127;-73
2022/08/11 11:07:55;;;;;;;;;;;;;;;27.12;53.29;100708.95;1760250;81;20425;-72
2022/08/11 11:10:22;;;;;;;;;;;;;;;27.18;52.85;100707.53;1757888;81;20174;-71
2022/08/11 11:18:36;;;;;;;;;;;;;;;27.53;51.31;100699.06;1754736;81;21216;-71
2022/08/11 11:21:08;;;;;;;;;;;;;;;27.65;51.63;100700.03;1756699;81;20181;-73
2022/08/11 11:23:46;;;;;;;;;;;;;;;27.59;51.52;100702.29;1758089;81;20144;-71
2022/08/11 11:26:42;;;;;;;;;;;;;;;27.65;51.27;100704.94;1755888;80;20139;-72
2022/08/11 11:29:24;;;;;;;;;;;;;;;27.72;51.36;100705.62;1757532;81;21297;-74
2022/08/11 11:32:05;;;;;;;;;;;;;;;27.79;51.10;100713.39;1759904;81;20190;-73
2022/08/11 11:35:03;;;;;;;;;;;;;;;27.81;51.15;100706.97;1753516;81;20185;-72
2022/08/11 11:37:34;;;;;;;;;;;;;;;27.87;50.71;100710.74;1749945;81;20468;-71
2022/08/11 11:40:00;;;;;;;;;;;;;;;27.87;50.61;100710.74;1757012;81;20201;-70
2022/08/11 11:42:26;;;;;;;;;;;;;;;27.97;50.78;100721.08;1756869;80;21050;-73
2022/08/11 11:44:53;;;;;;;;;;;;;;;28.14;50.79;100721.14;1752029;81;20174;-72
2022/08/11 11:47:21;;;;;;;;;;;;;;;28.29;50.18;100720.13;1759144;81;20178;-73
2022/08/11 11:49:48;;;;;;;;;;;;;;;28.37;50.12;100712.80;1735706;81;20166;-71
2022/08/11 11:52:17;;;;;;;;;;;;;;;28.50;50.09;100725.93;1759529;81;20142;-73
2022/08/11 11:54:45;;;;;;;;;;;;;;;28.54;49.39;100719.09;1760418;81;21130;-72
2022/08/11 12:02:41;;;;;;;;;;;;;;;28.40;49.42;100726.59;1760755;81;20126;-73
2022/08/11 12:05:09;;;;;;;;;;;;;;;28.11;50.41;100730.12;1760740;81;20603;-72
2022/08/11 12:10:21;;;;;;;;;;;;;;;27.70;50.98;100729.30;1760886;81;20163;-71
2022/08/11 12:15:33;;;;;;;;;;;;;;;27.51;51.54;100730.77;1760655;81;20134;-72
2022/08/11 12:17:59;;;;;;;;;;;;;;;27.43;51.57;100738.68;1761125;81;20142;-73
2022/08/11 12:20:26;;;;;;;;;;;;;;;27.53;51.67;100731.98;1760873;81;21085;-72
2022/08/11 12:28:23;;;;;;;;;;;;;;;27.80;51.20;100738.88;1761051;81;20445;-72
2022/08/11 12:30:50;;;;;;;;;;;;;;;27.82;50.91;100738.73;1746997;81;20153;-72
2022/08/11 12:33:17;;;;;;;;;;;;;;;27.87;51.27;100739.02;1760777;81;21086;-73
2022/08/11 12:35:43;;;;;;;;;;;;;;;27.70;51.60;100741.64;1736213;81;20173;-71
2022/08/11 12:38:09;;;;;;;;;;;;;;;27.71;51.48;100736.39;1760751;81;20186;-71
2022/08/11 12:46:09;;;;;;;;;;;;;;;27.44;52.48;100731.44;1758069;81;21799;-72
2022/08/11 12:54:11;;;;;;;;;;;;;;;27.29;52.99;100736.50;1758319;81;20147;-72
2022/08/11 13:05:02;;;;;;;;;;;;;;;27.24;54.21;100729.34;1759602;81;20459;-72
2022/08/11 13:07:29;;;;;;;;;;;;;;;27.22;54.61;100730.90;1760650;81;20252;-72
2022/08/11 13:09:55;;;;;;;;;;;;;;;27.30;54.63;100732.59;1736914;81;20474;-72
2022/08/11 13:15:10;;;;;;;;;;;;;;;27.29;54.42;100726.31;1759058;81;20138;-72
2022/08/11 13:17:37;;;;;;;;;;;;;;;27.34;54.49;100716.97;1760592;81;20170;-72
2022/08/11 13:20:05;;;;;;;;;;;;;;;27.41;54.32;100720.41;1759252;81;20130;-71
2022/08/11 13:22:31;;;;;;;;;;;;;;;27.48;54.15;100724.66;1759719;81;20158;-71
2022/08/11 13:24:58;;;;;;;;;;;;;;;27.71;53.46;100717.77;1760826;81;21203;-72
2022/08/11 13:27:24;;;;;;;;;;;;;;;27.73;53.50;100716.80;1760259;81;20174;-73
2022/08/11 13:31:09;;;;;;;;;;;;;;;27.73;53.47;100712.09;1760203;81;20187;-72
2022/08/11 13:32:19;;;;;;;;;;;;;;;27.79;53.41;100713.98;1754570;81;20170;-72
2022/08/11 13:34:45;;;;;;;;;;;;;;;27.86;53.13;100725.64;1759702;81;20145;-72
2022/08/11 13:37:13;;;;;;;;;;;;;;;27.92;53.28;100726.32;1760846;81;21158;-72
2022/08/11 13:39:45;;;;;;;;;;;;;;;27.99;52.73;100729.75;1759993;81;20138;-71
2022/08/11 13:42:10;;;;;;;;;;;;;;;28.00;52.25;100735.44;1757867;81;20385;-72
2022/08/11 13:44:37;;;;;;;;;;;;;;;28.05;52.26;100724.15;1758173;81;20213;-72
2022/08/11 13:47:05;;;;;;;;;;;;;;;28.09;52.02;100728.31;1758258;81;20183;-71
2022/08/11 13:49:35;;;;;;;;;;;;;;;28.04;51.76;100720.62;1760828;81;21243;-71
2022/08/11 13:52:06;;;;;;;;;;;;;;;27.97;52.10;100726.57;1760196;81;20420;-72
2022/08/11 13:54:35;;;;;;;;;;;;;;;27.91;52.17;100721.22;1760669;81;20146;-71
2022/08/11 13:57:04;;;;;;;;;;;;;;;27.89;52.29;100723.53;1759799;81;20205;-72
2022/08/11 13:59:31;;;;;;;;;;;;;;;27.93;52.19;100724.36;1757597;81;20649;-72
2022/08/11 14:02:02;;;;;;;;;;;;;;;27.93;52.21;100728.48;1757852;81;21139;-71
2022/08/11 14:04:32;;;;;;;;;;;;;;;27.96;52.03;100729.12;1758118;81;20214;-72
2022/08/11 14:07:00;;;;;;;;;;;;;;;27.99;52.06;100727.00;1759517;81;20198;-72
2022/08/11 14:09:28;;;;;;;;;;;;;;;28.03;52.17;100736.08;1758725;81;20213;-72
2022/08/11 14:14:50;;;;;;;;;;;;;;;27.90;52.37;100738.24;1757436;81;21178;-72
2022/08/11 14:17:17;;;;;;;;;;;;;;;27.89;52.73;100731.18;1758059;81;20232;-73
2022/08/11 14:19:43;;;;;;;;;;;;;;;27.92;52.86;100729.06;1755430;81;20143;-72
2022/08/11 14:22:10;;;;;;;;;;;;;;;27.95;52.92;100730.29;1757478;81;20127;-73
2022/08/11 14:24:40;;;;;;;;;;;;;;;27.95;52.92;100727.55;1758132;81;20146;-71
2022/08/11 14:27:10;;;;;;;;;;;;;;;27.97;53.03;100724.64;1759049;81;21201;-73
2022/08/11 14:29:38;;;;;;;;;;;;;;;28.04;52.92;100725.32;1760647;81;20142;-71
2022/08/11 14:32:06;;;;;;;;;;;;;;;27.99;52.80;100717.39;1737289;81;20153;-72
2022/08/11 14:34:33;;;;;;;;;;;;;;;27.96;53.09;100722.25;1760906;81;20159;-72
2022/08/11 14:37:03;;;;;;;;;;;;;;;27.96;53.22;100716.17;1760568;81;20146;-72
2022/08/11 14:39:35;;;;;;;;;;;;;;;27.97;52.97;100715.59;1759193;81;21268;-72
2022/08/11 14:47:47;;;;;;;;;;;;;;;27.74;53.41;100708.20;1760621;81;20299;-73
2022/08/11 14:50:17;;;;;;;;;;;;;;;27.62;53.76;100709.00;1760207;81;20193;-71
2022/08/11 14:53:06;;;;;;;;;;;;;;;27.52;54.24;100702.97;1757686;81;20838;-72
2022/08/11 14:58:25;;;;;;;;;;;;;;;27.82;54.58;100708.54;1758010;81;20146;-72
2022/08/11 15:00:54;;;;;;;;;;;;;;;28.41;53.74;100708.94;1758573;81;20181;-74
2022/08/11 15:03:21;;;;;;;;;;;;;;;29.03;52.43;100707.06;1758420;81;20146;-71
2022/08/11 15:05:52;;;;;;;;;;;;;;;29.61;50.86;100709.10;1757989;81;21190;-72
2022/08/11 15:08:19;;;;;;;;;;;;;;;30.06;49.45;100710.36;1754630;81;20174;-73
2022/08/11 15:10:46;;;;;;;;;;;;;;;30.28;48.46;100705.17;1758178;81;20204;-71
2022/08/11 15:13:19;;;;;;;;;;;;;;;30.44;47.90;100710.35;1758211;81;20135;-73
2022/08/11 15:18:31;;;;;;;;;;;;;;;30.44;47.74;100710.92;1759853;81;21192;-73
2022/08/11 15:37:40;;;;;;;;;;;;;;;31.23;45.67;100700.85;1757890;81;20209;-72
2022/08/11 15:46:12;;;;;;;;;;;;;;;30.15;47.84;100693.68;1758428;81;21251;-73
2022/08/11 15:48:47;;;;;;;;;;;;;;;29.71;48.89;100696.58;1758313;81;20206;-72
2022/08/11 15:51:27;;;;;;;;;;;;;;;29.31;49.70;100693.34;1757641;81;20173;-72
2022/08/11 15:53:57;;;;;;;;;;;;;;;29.07;50.57;100700.22;1759913;81;20169;-74
2022/08/11 15:56:28;;;;;;;;;;;;;;;28.91;51.13;100699.05;1759428;81;20214;-73
2022/08/11 16:04:30;;;;;;;;;;;;;;;28.54;52.54;100699.86;1758287;81;20181;-72
2022/08/11 16:07:10;;;;;;;;;;;;;;;28.43;52.89;100691.51;1755131;81;20162;-71
2022/08/11 16:09:39;;;;;;;;;;;;;;;28.35;53.13;100692.55;1758033;81;20170;-73
2022/08/11 16:12:08;;;;;;;;;;;;;;;28.25;53.48;100690.47;1757577;81;21121;-72
2022/08/11 16:17:25;;;;;;;;;;;;;;;28.18;54.04;100700.00;1688296;83;20543;-73
2022/08/11 16:19:53;;;;;;;;;;;;;;;28.22;54.15;100698.86;1689239;83;20502;-71
2022/08/11 16:22:28;;;;;;;;;;;;;;;28.26;54.14;100692.04;1718808;81;20438;-72
2022/08/11 16:24:50;;;;;;;;;;;;;;;28.31;54.18;100688.19;1755401;81;21296;-73
2022/08/11 16:27:17;;;;;;;;;;;;;;;28.56;53.63;100688.48;1758256;81;20244;-72
2022/08/11 16:29:46;;;;;;;;;;;;;;;28.58;53.48;100695.19;1760733;81;20130;-72
2022/08/11 16:32:16;;;;;;;;;;;;;;;28.57;53.45;100696.95;1760395;81;20142;-72
2022/08/11 16:40:22;;;;;;;;;;;;;;;28.10;54.54;100695.00;1759630;81;20162;-73
2022/08/11 16:48:20;;;;;;;;;;;;;;;27.77;55.46;100702.56;1756811;81;20927;-72
2022/08/11 16:50:47;;;;;;;;;;;;;;;27.60;55.95;100701.91;1757785;81;21966;-73
2022/08/11 16:53:16;;;;;;;;;;;;;;;27.47;56.36;100704.64;1760577;81;20190;-72
2022/08/11 16:55:44;;;;;;;;;;;;;;;27.53;56.29;100700.43;1760433;81;20174;-72
2022/08/11 17:00:57;;;;;;;;;;;;;;;27.18;57.28;100703.42;1754956;81;20181;-72
2022/08/11 17:14:57;;;;;;;;;;;;;;;26.71;59.27;100703.70;1756060;81;20162;-73
2022/08/11 17:17:35;;;;;;;;;;;;;;;26.62;59.66;100702.55;1756071;80;21546;-72
2022/08/11 17:20:08;;;;;;;;;;;;;;;26.54;59.87;100703.00;1758556;81;20138;-71
2022/08/11 17:25:17;;;;;;;;;;;;;;;26.40;60.58;100710.33;1758673;81;20151;-73
2022/08/11 17:27:43;;;;;;;;;;;;;;;26.31;60.88;100708.38;1760118;81;20221;-72
2022/08/11 17:30:10;;;;;;;;;;;;;;;26.24;61.23;100711.56;1759837;81;21803;-73
2022/08/11 17:35:37;;;;;;;;;;;;;;;26.10;61.70;100712.05;1730712;83;20145;-72
2022/08/11 17:38:13;;;;;;;;;;;;;;;26.02;62.01;100716.56;1730613;82;20157;-72
2022/08/11 17:48:24;;;;;;;;;;;;;;;25.95;62.28;100717.78;1731590;81;20184;-73
2022/08/11 17:48:42;;;;;;;;;;;;;;;25.78;62.96;100725.78;1758292;81;20190;-73
2022/08/11 17:59:50;;;;;;;;;;;;;;;25.75;63.11;100730.59;1758529;81;20214;-73
2022/08/11 18:03:28;;;;;;;;;;;;;;;25.70;63.64;100732.25;1758356;81;20239;-73
2022/08/11 18:04:29;;;;;;;;;;;;;;;25.69;63.75;100733.38;1754494;81;20249;-72
2022/08/11 18:06:55;;;;;;;;;;;;;;;25.69;63.86;100731.43;1758388;81;20182;-76
